sensor_id;sensor_type;location;lat;lon;timestamp;P1;durP1;ratioP1;P2;durP2;ratioP2
76053;SDS011;64752;48.870;9.082;2022-11-20T00:00:44;104.65;;;19.77;;
76053;SDS011;64752;48.870;9.082;2022-11-20T00:03:10;83.75;;;17.77;;
76053;SDS011;64752;48.870;9.082;2022-11-20T00:05:35;98.53;;;18.85;;
76053;SDS011;64752;48.870;9.082;2022-11-20T00:08:00;128.95;;;20.00;;
76053;SDS011;64752;48.870;9.082;2022-11-20T00:10:26;303.27;;;33.70;;
76053;SDS011;64752;48.870;9.082;2022-11-20T00:12:51;84.32;;;15.65;;
76053;SDS011;64752;48.870;9.082;2022-11-20T00:15:17;258.17;;;30.15;;
76053;SDS011;64752;48.870;9.082;2022-11-20T00:17:42;73.50;;;16.92;;
76053;SDS011;64752;48.870;9.082;2022-11-20T00:20:08;31.38;;;14.95;;
76053;SDS011;64752;48.870;9.082;2022-11-20T00:22:33;50.55;;;15.38;;
76053;SDS011;64752;48.870;9.082;2022-11-20T00:24:59;40.33;;;16.85;;
76053;SDS011;64752;48.870;9.082;2022-11-20T00:27:24;27.80;;;15.67;;
76053;SDS011;64752;48.870;9.082;2022-11-20T00:29:49;31.67;;;16.42;;
76053;SDS011;64752;48.870;9.082;2022-11-20T00:32:15;51.25;;;15.63;;
76053;SDS011;64752;48.870;9.082;2022-11-20T00:34:40;112.05;;;18.00;;
76053;SDS011;64752;48.870;9.082;2022-11-20T00:37:05;26.23;;;14.32;;
76053;SDS011;64752;48.870;9.082;2022-11-20T00:39:31;22.75;;;14.27;;
76053;SDS011;64752;48.870;9.082;2022-11-20T00:41:56;21.60;;;13.02;;
76053;SDS011;64752;48.870;9.082;2022-11-20T00:44:21;16.45;;;12.15;;
76053;SDS011;64752;48.870;9.082;2022-11-20T00:46:47;18.95;;;13.75;;
76053;SDS011;64752;48.870;9.082;2022-11-20T00:49:12;21.38;;;13.27;;
76053;SDS011;64752;48.870;9.082;2022-11-20T00:51:37;18.20;;;12.93;;
76053;SDS011;64752;48.870;9.082;2022-11-20T00:54:03;17.40;;;10.80;;
76053;SDS011;64752;48.870;9.082;2022-11-20T00:56:28;14.30;;;10.40;;
76053;SDS011;64752;48.870;9.082;2022-11-20T00:58:53;17.63;;;11.27;;
76053;SDS011;64752;48.870;9.082;2022-11-20T01:01:20;19.83;;;12.97;;
76053;SDS011;64752;48.870;9.082;2022-11-20T01:03:49;20.02;;;12.60;;
76053;SDS011;64752;48.870;9.082;2022-11-20T01:06:19;20.27;;;13.00;;
76053;SDS011;64752;48.870;9.082;2022-11-20T01:08:45;22.73;;;13.77;;
76053;SDS011;64752;48.870;9.082;2022-11-20T01:11:12;24.33;;;15.13;;
76053;SDS011;64752;48.870;9.082;2022-11-20T01:13:39;22.98;;;13.63;;
76053;SDS011;64752;48.870;9.082;2022-11-20T01:16:07;20.02;;;12.98;;
76053;SDS011;64752;48.870;9.082;2022-11-20T01:18:33;18.10;;;11.90;;
76053;SDS011;64752;48.870;9.082;2022-11-20T01:21:06;24.83;;;14.32;;
76053;SDS011;64752;48.870;9.082;2022-11-20T01:23:34;27.02;;;15.52;;
76053;SDS011;64752;48.870;9.082;2022-11-20T01:26:04;28.65;;;16.40;;
76053;SDS011;64752;48.870;9.082;2022-11-20T01:28:34;28.63;;;16.38;;
76053;SDS011;64752;48.870;9.082;2022-11-20T01:31:01;25.45;;;15.52;;
76053;SDS011;64752;48.870;9.082;2022-11-20T01:33:26;26.38;;;14.95;;
76053;SDS011;64752;48.870;9.082;2022-11-20T01:35:52;15.77;;;11.93;;
76053;SDS011;64752;48.870;9.082;2022-11-20T01:38:18;15.52;;;10.15;;
76053;SDS011;64752;48.870;9.082;2022-11-20T01:40:45;14.23;;;8.63;;
76053;SDS011;64752;48.870;9.082;2022-11-20T01:43:18;16.42;;;9.27;;
76053;SDS011;64752;48.870;9.082;2022-11-20T01:48:17;10.27;;;6.75;;
76053;SDS011;64752;48.870;9.082;2022-11-20T01:50:44;13.07;;;9.45;;
76053;SDS011;64752;48.870;9.082;2022-11-20T01:53:11;11.45;;;7.70;;
76053;SDS011;64752;48.870;9.082;2022-11-20T01:55:41;10.85;;;7.22;;
76053;SDS011;64752;48.870;9.082;2022-11-20T01:58:10;9.02;;;6.43;;
76053;SDS011;64752;48.870;9.082;2022-11-20T02:00:36;9.70;;;5.72;;
76053;SDS011;64752;48.870;9.082;2022-11-20T02:03:11;7.87;;;5.50;;
76053;SDS011;64752;48.870;9.082;2022-11-20T02:08:08;6.28;;;4.45;;
76053;SDS011;64752;48.870;9.082;2022-11-20T02:10:34;9.60;;;4.72;;
76053;SDS011;64752;48.870;9.082;2022-11-20T02:13:00;7.20;;;4.90;;
76053;SDS011;64752;48.870;9.082;2022-11-20T02:15:44;8.27;;;4.15;;
76053;SDS011;64752;48.870;9.082;2022-11-20T02:18:10;6.07;;;3.60;;
76053;SDS011;64752;48.870;9.082;2022-11-20T02:20:38;6.43;;;3.60;;
76053;SDS011;64752;48.870;9.082;2022-11-20T02:23:17;4.90;;;3.30;;
76053;SDS011;64752;48.870;9.082;2022-11-20T02:28:10;6.20;;;3.83;;
76053;SDS011;64752;48.870;9.082;2022-11-20T02:30:36;5.93;;;3.53;;
76053;SDS011;64752;48.870;9.082;2022-11-20T02:33:01;7.45;;;3.60;;
76053;SDS011;64752;48.870;9.082;2022-11-20T02:37:53;7.03;;;2.97;;
76053;SDS011;64752;48.870;9.082;2022-11-20T02:40:21;7.00;;;2.72;;
76053;SDS011;64752;48.870;9.082;2022-11-20T02:42:47;4.70;;;2.72;;
76053;SDS011;64752;48.870;9.082;2022-11-20T02:45:12;7.70;;;2.92;;
76053;SDS011;64752;48.870;9.082;2022-11-20T02:47:38;3.58;;;2.58;;
76053;SDS011;64752;48.870;9.082;2022-11-20T02:50:04;5.03;;;3.05;;
76053;SDS011;64752;48.870;9.082;2022-11-20T02:52:30;7.13;;;3.17;;
76053;SDS011;64752;48.870;9.082;2022-11-20T02:54:57;6.47;;;3.40;;
76053;SDS011;64752;48.870;9.082;2022-11-20T02:57:22;4.30;;;3.03;;
76053;SDS011;64752;48.870;9.082;2022-11-20T02:59:48;6.63;;;3.10;;
76053;SDS011;64752;48.870;9.082;2022-11-20T03:02:13;4.97;;;3.33;;
76053;SDS011;64752;48.870;9.082;2022-11-20T03:04:38;6.28;;;4.00;;
76053;SDS011;64752;48.870;9.082;2022-11-20T03:07:04;4.60;;;2.92;;
76053;SDS011;64752;48.870;9.082;2022-11-20T03:09:29;6.07;;;3.97;;
76053;SDS011;64752;48.870;9.082;2022-11-20T03:11:54;8.38;;;3.50;;
76053;SDS011;64752;48.870;9.082;2022-11-20T03:14:20;5.68;;;3.53;;
76053;SDS011;64752;48.870;9.082;2022-11-20T03:16:45;9.07;;;4.05;;
76053;SDS011;64752;48.870;9.082;2022-11-20T03:19:11;5.95;;;3.55;;
76053;SDS011;64752;48.870;9.082;2022-11-20T03:21:37;6.28;;;3.95;;
76053;SDS011;64752;48.870;9.082;2022-11-20T03:24:02;4.97;;;3.65;;
76053;SDS011;64752;48.870;9.082;2022-11-20T03:26:28;5.70;;;3.70;;
76053;SDS011;64752;48.870;9.082;2022-11-20T03:28:58;5.35;;;3.60;;
76053;SDS011;64752;48.870;9.082;2022-11-20T03:31:27;6.28;;;3.72;;
76053;SDS011;64752;48.870;9.082;2022-11-20T03:33:53;9.45;;;3.67;;
76053;SDS011;64752;48.870;9.082;2022-11-20T03:36:20;5.43;;;3.92;;
76053;SDS011;64752;48.870;9.082;2022-11-20T03:38:46;5.65;;;4.00;;
76053;SDS011;64752;48.870;9.082;2022-11-20T03:41:17;5.15;;;3.33;;
76053;SDS011;64752;48.870;9.082;2022-11-20T03:43:56;4.72;;;3.45;;
76053;SDS011;64752;48.870;9.082;2022-11-20T03:46:23;9.70;;;4.25;;
76053;SDS011;64752;48.870;9.082;2022-11-20T03:48:49;7.10;;;4.27;;
76053;SDS011;64752;48.870;9.082;2022-11-20T03:51:22;5.80;;;4.55;;
76053;SDS011;64752;48.870;9.082;2022-11-20T03:53:49;6.43;;;4.43;;
76053;SDS011;64752;48.870;9.082;2022-11-20T03:56:16;8.43;;;4.50;;
76053;SDS011;64752;48.870;9.082;2022-11-20T03:58:43;6.40;;;4.22;;
76053;SDS011;64752;48.870;9.082;2022-11-20T04:01:10;5.90;;;4.30;;
76053;SDS011;64752;48.870;9.082;2022-11-20T04:03:38;9.73;;;4.95;;
76053;SDS011;64752;48.870;9.082;2022-11-20T04:06:05;6.82;;;4.72;;
76053;SDS011;64752;48.870;9.082;2022-11-20T04:08:32;7.30;;;4.50;;
76053;SDS011;64752;48.870;9.082;2022-11-20T04:11:08;6.57;;;4.40;;
76053;SDS011;64752;48.870;9.082;2022-11-20T04:13:41;11.75;;;5.00;;
76053;SDS011;64752;48.870;9.082;2022-11-20T04:16:09;6.43;;;4.80;;
76053;SDS011;64752;48.870;9.082;2022-11-20T04:18:35;6.10;;;4.28;;
76053;SDS011;64752;48.870;9.082;2022-11-20T04:21:01;7.40;;;4.40;;
76053;SDS011;64752;48.870;9.082;2022-11-20T04:23:27;6.57;;;4.07;;
76053;SDS011;64752;48.870;9.082;2022-11-20T04:25:52;7.57;;;3.97;;
76053;SDS011;64752;48.870;9.082;2022-11-20T04:28:18;5.95;;;3.80;;
76053;SDS011;64752;48.870;9.082;2022-11-20T04:30:43;6.53;;;3.97;;
76053;SDS011;64752;48.870;9.082;2022-11-20T04:33:09;7.60;;;4.20;;
76053;SDS011;64752;48.870;9.082;2022-11-20T04:35:34;6.35;;;4.05;;
76053;SDS011;64752;48.870;9.082;2022-11-20T04:38:00;5.43;;;3.85;;
76053;SDS011;64752;48.870;9.082;2022-11-20T04:40:27;6.25;;;3.47;;
76053;SDS011;64752;48.870;9.082;2022-11-20T04:42:52;8.35;;;4.30;;
76053;SDS011;64752;48.870;9.082;2022-11-20T04:45:17;5.30;;;3.50;;
76053;SDS011;64752;48.870;9.082;2022-11-20T04:47:43;6.47;;;3.90;;
76053;SDS011;64752;48.870;9.082;2022-11-20T04:50:08;6.03;;;3.95;;
76053;SDS011;64752;48.870;9.082;2022-11-20T04:52:34;8.65;;;3.92;;
76053;SDS011;64752;48.870;9.082;2022-11-20T04:54:59;6.35;;;3.63;;
76053;SDS011;64752;48.870;9.082;2022-11-20T04:57:24;6.90;;;4.03;;
76053;SDS011;64752;48.870;9.082;2022-11-20T04:59:49;6.05;;;3.63;;
76053;SDS011;64752;48.870;9.082;2022-11-20T05:02:15;7.47;;;4.00;;
76053;SDS011;64752;48.870;9.082;2022-11-20T05:04:40;8.83;;;3.57;;
76053;SDS011;64752;48.870;9.082;2022-11-20T05:07:05;6.97;;;3.47;;
76053;SDS011;64752;48.870;9.082;2022-11-20T05:09:31;6.40;;;3.80;;
76053;SDS011;64752;48.870;9.082;2022-11-20T05:11:56;5.95;;;3.75;;
76053;SDS011;64752;48.870;9.082;2022-11-20T05:14:21;8.65;;;3.58;;
76053;SDS011;64752;48.870;9.082;2022-11-20T05:16:47;6.10;;;3.50;;
76053;SDS011;64752;48.870;9.082;2022-11-20T05:19:12;5.05;;;3.22;;
76053;SDS011;64752;48.870;9.082;2022-11-20T05:24:09;6.53;;;3.33;;
76053;SDS011;64752;48.870;9.082;2022-11-20T05:26:34;9.30;;;3.00;;
76053;SDS011;64752;48.870;9.082;2022-11-20T05:29:00;10.15;;;3.67;;
76053;SDS011;64752;48.870;9.082;2022-11-20T05:31:25;4.82;;;3.58;;
76053;SDS011;64752;48.870;9.082;2022-11-20T05:33:51;4.60;;;3.05;;
76053;SDS011;64752;48.870;9.082;2022-11-20T05:36:16;5.10;;;3.47;;
76053;SDS011;64752;48.870;9.082;2022-11-20T05:38:42;5.32;;;2.85;;
76053;SDS011;64752;48.870;9.082;2022-11-20T05:41:09;7.07;;;3.40;;
76053;SDS011;64752;48.870;9.082;2022-11-20T05:43:35;5.85;;;3.20;;
76053;SDS011;64752;48.870;9.082;2022-11-20T05:46:02;5.38;;;3.22;;
76053;SDS011;64752;48.870;9.082;2022-11-20T05:48:29;6.68;;;3.70;;
76053;SDS011;64752;48.870;9.082;2022-11-20T05:50:56;5.45;;;3.30;;
76053;SDS011;64752;48.870;9.082;2022-11-20T05:53:23;5.22;;;3.20;;
76053;SDS011;64752;48.870;9.082;2022-11-20T05:55:55;5.00;;;2.95;;
76053;SDS011;64752;48.870;9.082;2022-11-20T05:58:29;5.63;;;3.30;;
76053;SDS011;64752;48.870;9.082;2022-11-20T06:01:02;6.10;;;3.15;;
76053;SDS011;64752;48.870;9.082;2022-11-20T06:03:29;5.35;;;3.40;;
76053;SDS011;64752;48.870;9.082;2022-11-20T06:05:54;5.30;;;3.33;;
76053;SDS011;64752;48.870;9.082;2022-11-20T06:08:19;3.90;;;3.33;;
76053;SDS011;64752;48.870;9.082;2022-11-20T06:10:45;5.53;;;3.17;;
76053;SDS011;64752;48.870;9.082;2022-11-20T06:13:10;5.63;;;3.85;;
76053;SDS011;64752;48.870;9.082;2022-11-20T06:15:35;4.65;;;3.35;;
76053;SDS011;64752;48.870;9.082;2022-11-20T06:18:00;5.53;;;3.58;;
76053;SDS011;64752;48.870;9.082;2022-11-20T06:20:26;7.47;;;3.77;;
76053;SDS011;64752;48.870;9.082;2022-11-20T06:22:51;6.00;;;3.20;;
76053;SDS011;64752;48.870;9.082;2022-11-20T06:25:16;5.78;;;3.05;;
76053;SDS011;64752;48.870;9.082;2022-11-20T06:27:42;5.03;;;3.30;;
76053;SDS011;64752;48.870;9.082;2022-11-20T06:30:07;5.88;;;3.60;;
76053;SDS011;64752;48.870;9.082;2022-11-20T06:32:33;4.57;;;2.97;;
76053;SDS011;64752;48.870;9.082;2022-11-20T06:34:59;4.60;;;3.08;;
76053;SDS011;64752;48.870;9.082;2022-11-20T06:37:24;7.38;;;3.30;;
76053;SDS011;64752;48.870;9.082;2022-11-20T06:39:49;5.22;;;3.38;;
76053;SDS011;64752;48.870;9.082;2022-11-20T06:42:15;6.07;;;3.10;;
76053;SDS011;64752;48.870;9.082;2022-11-20T06:44:43;4.72;;;3.10;;
76053;SDS011;64752;48.870;9.082;2022-11-20T06:47:08;3.67;;;2.60;;
76053;SDS011;64752;48.870;9.082;2022-11-20T06:49:33;5.60;;;3.05;;
76053;SDS011;64752;48.870;9.082;2022-11-20T06:51:59;5.63;;;3.30;;
76053;SDS011;64752;48.870;9.082;2022-11-20T06:54:24;4.80;;;2.92;;
76053;SDS011;64752;48.870;9.082;2022-11-20T06:56:50;3.83;;;2.85;;
76053;SDS011;64752;48.870;9.082;2022-11-20T06:59:15;6.38;;;3.15;;
76053;SDS011;64752;48.870;9.082;2022-11-20T07:01:40;4.82;;;2.83;;
76053;SDS011;64752;48.870;9.082;2022-11-20T07:04:06;5.32;;;2.95;;
76053;SDS011;64752;48.870;9.082;2022-11-20T07:06:31;3.85;;;2.92;;
76053;SDS011;64752;48.870;9.082;2022-11-20T07:08:57;4.28;;;2.90;;
76053;SDS011;64752;48.870;9.082;2022-11-20T07:11:23;3.78;;;2.35;;
76053;SDS011;64752;48.870;9.082;2022-11-20T07:13:48;3.85;;;2.28;;
76053;SDS011;64752;48.870;9.082;2022-11-20T07:16:14;4.35;;;2.50;;
76053;SDS011;64752;48.870;9.082;2022-11-20T07:18:39;3.35;;;2.53;;
76053;SDS011;64752;48.870;9.082;2022-11-20T07:21:06;4.22;;;2.65;;
76053;SDS011;64752;48.870;9.082;2022-11-20T07:23:33;3.55;;;2.05;;
76053;SDS011;64752;48.870;9.082;2022-11-20T07:26:05;7.93;;;3.03;;
76053;SDS011;64752;48.870;9.082;2022-11-20T07:28:31;3.47;;;2.13;;
76053;SDS011;64752;48.870;9.082;2022-11-20T07:30:57;5.10;;;2.33;;
76053;SDS011;64752;48.870;9.082;2022-11-20T07:33:22;4.53;;;2.25;;
76053;SDS011;64752;48.870;9.082;2022-11-20T07:35:48;6.05;;;2.78;;
76053;SDS011;64752;48.870;9.082;2022-11-20T07:38:13;5.23;;;3.20;;
76053;SDS011;64752;48.870;9.082;2022-11-20T07:40:39;5.35;;;2.83;;
76053;SDS011;64752;48.870;9.082;2022-11-20T07:43:04;3.28;;;2.45;;
76053;SDS011;64752;48.870;9.082;2022-11-20T07:45:30;4.43;;;2.25;;
76053;SDS011;64752;48.870;9.082;2022-11-20T07:47:55;4.70;;;3.00;;
76053;SDS011;64752;48.870;9.082;2022-11-20T07:50:21;3.65;;;2.47;;
76053;SDS011;64752;48.870;9.082;2022-11-20T07:52:46;7.25;;;3.80;;
76053;SDS011;64752;48.870;9.082;2022-11-20T07:55:12;7.43;;;3.75;;
76053;SDS011;64752;48.870;9.082;2022-11-20T07:57:38;6.18;;;3.65;;
76053;SDS011;64752;48.870;9.082;2022-11-20T08:00:04;5.57;;;3.10;;
76053;SDS011;64752;48.870;9.082;2022-11-20T08:02:31;5.63;;;2.80;;
76053;SDS011;64752;48.870;9.082;2022-11-20T08:04:57;4.72;;;2.40;;
76053;SDS011;64752;48.870;9.082;2022-11-20T08:07:22;7.10;;;2.70;;
76053;SDS011;64752;48.870;9.082;2022-11-20T08:09:47;3.42;;;2.00;;
76053;SDS011;64752;48.870;9.082;2022-11-20T08:12:20;2.33;;;1.73;;
76053;SDS011;64752;48.870;9.082;2022-11-20T08:15:04;3.72;;;1.77;;
76053;SDS011;64752;48.870;9.082;2022-11-20T08:17:30;1.83;;;1.17;;
76053;SDS011;64752;48.870;9.082;2022-11-20T08:19:56;2.35;;;1.00;;
76053;SDS011;64752;48.870;9.082;2022-11-20T08:22:22;1.52;;;1.05;;
76053;SDS011;64752;48.870;9.082;2022-11-20T08:24:47;1.20;;;0.82;;
76053;SDS011;64752;48.870;9.082;2022-11-20T08:27:13;0.73;;;0.65;;
76053;SDS011;64752;48.870;9.082;2022-11-20T08:29:38;1.58;;;0.90;;
76053;SDS011;64752;48.870;9.082;2022-11-20T08:32:04;2.35;;;0.77;;
76053;SDS011;64752;48.870;9.082;2022-11-20T08:34:29;2.88;;;0.70;;
76053;SDS011;64752;48.870;9.082;2022-11-20T08:36:54;1.33;;;0.60;;
76053;SDS011;64752;48.870;9.082;2022-11-20T08:39:20;1.05;;;0.70;;
76053;SDS011;64752;48.870;9.082;2022-11-20T08:41:45;0.70;;;0.70;;
76053;SDS011;64752;48.870;9.082;2022-11-20T08:44:10;0.60;;;0.60;;
76053;SDS011;64752;48.870;9.082;2022-11-20T08:46:39;0.47;;;0.47;;
76053;SDS011;64752;48.870;9.082;2022-11-20T08:49:08;0.73;;;0.65;;
76053;SDS011;64752;48.870;9.082;2022-11-20T08:51:35;0.60;;;0.50;;
76053;SDS011;64752;48.870;9.082;2022-11-20T08:54:01;1.25;;;0.70;;
76053;SDS011;64752;48.870;9.082;2022-11-20T08:56:27;1.53;;;0.70;;
76053;SDS011;64752;48.870;9.082;2022-11-20T08:58:53;2.05;;;0.80;;
76053;SDS011;64752;48.870;9.082;2022-11-20T09:01:19;0.55;;;0.52;;
76053;SDS011;64752;48.870;9.082;2022-11-20T09:03:45;1.17;;;0.50;;
76053;SDS011;64752;48.870;9.082;2022-11-20T09:06:11;0.80;;;0.77;;
76053;SDS011;64752;48.870;9.082;2022-11-20T09:08:36;0.60;;;0.60;;
76053;SDS011;64752;48.870;9.082;2022-11-20T09:11:02;0.50;;;0.50;;
76053;SDS011;64752;48.870;9.082;2022-11-20T09:13:29;0.70;;;0.70;;
76053;SDS011;64752;48.870;9.082;2022-11-20T09:18:24;1.05;;;0.60;;
76053;SDS011;64752;48.870;9.082;2022-11-20T09:20:50;1.52;;;0.85;;
76053;SDS011;64752;48.870;9.082;2022-11-20T09:23:16;0.90;;;0.68;;
76053;SDS011;64752;48.870;9.082;2022-11-20T09:25:42;3.72;;;0.80;;
76053;SDS011;64752;48.870;9.082;2022-11-20T09:28:08;3.70;;;0.77;;
76053;SDS011;64752;48.870;9.082;2022-11-20T09:30:34;0.85;;;0.70;;
76053;SDS011;64752;48.870;9.082;2022-11-20T09:33:00;1.40;;;0.98;;
76053;SDS011;64752;48.870;9.082;2022-11-20T09:35:25;7.90;;;3.72;;
76053;SDS011;64752;48.870;9.082;2022-11-20T09:37:51;1.58;;;1.30;;
76053;SDS011;64752;48.870;9.082;2022-11-20T09:40:24;1.23;;;0.90;;
76053;SDS011;64752;48.870;9.082;2022-11-20T09:42:55;3.17;;;1.33;;
76053;SDS011;64752;48.870;9.082;2022-11-20T09:48:29;1.60;;;1.20;;
76053;SDS011;64752;48.870;9.082;2022-11-20T09:56:21;4.40;;;2.00;;
76053;SDS011;64752;48.870;9.082;2022-11-20T09:58:48;4.30;;;1.83;;
76053;SDS011;64752;48.870;9.082;2022-11-20T10:01:23;3.00;;;1.52;;
76053;SDS011;64752;48.870;9.082;2022-11-20T10:03:58;5.15;;;2.47;;
76053;SDS011;64752;48.870;9.082;2022-11-20T10:06:29;3.17;;;2.00;;
76053;SDS011;64752;48.870;9.082;2022-11-20T10:16:56;4.70;;;2.28;;
76053;SDS011;64752;48.870;9.082;2022-11-20T10:30:19;3.85;;;1.98;;
76053;SDS011;64752;48.870;9.082;2022-11-20T10:32:52;3.33;;;1.77;;
76053;SDS011;64752;48.870;9.082;2022-11-20T10:38:12;5.18;;;2.53;;
76053;SDS011;64752;48.870;9.082;2022-11-20T10:40:44;2.70;;;1.42;;
76053;SDS011;64752;48.870;9.082;2022-11-20T10:43:21;2.83;;;1.60;;
76053;SDS011;64752;48.870;9.082;2022-11-20T10:45:56;2.67;;;1.80;;
76053;SDS011;64752;48.870;9.082;2022-11-20T10:48:30;1.77;;;1.65;;
76053;SDS011;64752;48.870;9.082;2022-11-20T11:01:50;3.80;;;2.80;;
76053;SDS011;64752;48.870;9.082;2022-11-20T11:06:47;3.70;;;2.38;;
76053;SDS011;64752;48.870;9.082;2022-11-20T11:09:19;5.63;;;2.92;;
76053;SDS011;64752;48.870;9.082;2022-11-20T11:11:50;3.50;;;2.00;;
76053;SDS011;64752;48.870;9.082;2022-11-20T11:14:16;4.72;;;2.00;;
76053;SDS011;64752;48.870;9.082;2022-11-20T11:16:55;2.75;;;1.90;;
76053;SDS011;64752;48.870;9.082;2022-11-20T11:19:22;3.75;;;2.10;;
76053;SDS011;64752;48.870;9.082;2022-11-20T11:21:49;5.00;;;2.00;;
76053;SDS011;64752;48.870;9.082;2022-11-20T11:24:24;3.67;;;1.60;;
76053;SDS011;64752;48.870;9.082;2022-11-20T11:29:24;3.47;;;1.42;;
76053;SDS011;64752;48.870;9.082;2022-11-20T11:32:11;3.88;;;1.70;;
76053;SDS011;64752;48.870;9.082;2022-11-20T11:34:57;4.15;;;1.77;;
76053;SDS011;64752;48.870;9.082;2022-11-20T11:37:24;5.03;;;1.80;;
76053;SDS011;64752;48.870;9.082;2022-11-20T11:39:57;4.53;;;1.92;;
76053;SDS011;64752;48.870;9.082;2022-11-20T11:42:23;4.88;;;2.22;;
76053;SDS011;64752;48.870;9.082;2022-11-20T11:44:48;6.20;;;2.10;;
76053;SDS011;64752;48.870;9.082;2022-11-20T11:55:58;2.80;;;1.67;;
76053;SDS011;64752;48.870;9.082;2022-11-20T12:06:26;3.38;;;1.30;;
76053;SDS011;64752;48.870;9.082;2022-11-20T12:08:59;3.20;;;1.42;;
76053;SDS011;64752;48.870;9.082;2022-11-20T12:11:31;5.18;;;1.30;;
76053;SDS011;64752;48.870;9.082;2022-11-20T12:16:49;2.60;;;1.17;;
76053;SDS011;64752;48.870;9.082;2022-11-20T12:19:17;2.95;;;1.10;;
76053;SDS011;64752;48.870;9.082;2022-11-20T12:21:47;4.63;;;1.20;;
76053;SDS011;64752;48.870;9.082;2022-11-20T12:29:43;3.03;;;1.25;;
76053;SDS011;64752;48.870;9.082;2022-11-20T12:35:08;5.20;;;1.00;;
76053;SDS011;64752;48.870;9.082;2022-11-20T12:42:57;1.83;;;0.85;;
76053;SDS011;64752;48.870;9.082;2022-11-20T13:08:17;2.88;;;1.20;;
76053;SDS011;64752;48.870;9.082;2022-11-20T13:16:25;3.30;;;1.42;;
76053;SDS011;64752;48.870;9.082;2022-11-20T13:18:56;2.72;;;1.10;;
76053;SDS011;64752;48.870;9.082;2022-11-20T13:21:35;5.15;;;1.27;;
76053;SDS011;64752;48.870;9.082;2022-11-20T13:24:35;1.67;;;1.05;;
76053;SDS011;64752;48.870;9.082;2022-11-20T13:29:38;1.98;;;0.80;;
76053;SDS011;64752;48.870;9.082;2022-11-20T13:34:54;2.60;;;0.95;;
76053;SDS011;64752;48.870;9.082;2022-11-20T13:42:43;4.35;;;1.08;;
76053;SDS011;64752;48.870;9.082;2022-11-20T13:45:27;4.75;;;1.30;;
76053;SDS011;64752;48.870;9.082;2022-11-20T13:47:54;2.65;;;1.02;;
76053;SDS011;64752;48.870;9.082;2022-11-20T13:50:38;1.77;;;0.90;;
76053;SDS011;64752;48.870;9.082;2022-11-20T13:53:13;2.08;;;0.93;;
76053;SDS011;64752;48.870;9.082;2022-11-20T13:55:54;1.10;;;0.65;;
76053;SDS011;64752;48.870;9.082;2022-11-20T14:01:09;3.13;;;0.70;;
76053;SDS011;64752;48.870;9.082;2022-11-20T14:03:40;3.03;;;0.82;;
76053;SDS011;64752;48.870;9.082;2022-11-20T14:06:11;5.50;;;1.70;;
76053;SDS011;64752;48.870;9.082;2022-11-20T14:08:44;3.88;;;1.38;;
76053;SDS011;64752;48.870;9.082;2022-11-20T14:16:38;2.03;;;1.10;;
76053;SDS011;64752;48.870;9.082;2022-11-20T14:21:45;4.22;;;1.23;;
76053;SDS011;64752;48.870;9.082;2022-11-20T14:24:13;3.92;;;1.55;;
76053;SDS011;64752;48.870;9.082;2022-11-20T14:26:43;3.92;;;1.60;;
76053;SDS011;64752;48.870;9.082;2022-11-20T14:29:13;2.40;;;1.40;;
76053;SDS011;64752;48.870;9.082;2022-11-20T14:31:41;3.17;;;1.38;;
76053;SDS011;64752;48.870;9.082;2022-11-20T14:34:18;5.18;;;1.70;;
76053;SDS011;64752;48.870;9.082;2022-11-20T14:36:47;2.40;;;1.30;;
76053;SDS011;64752;48.870;9.082;2022-11-20T14:39:20;2.78;;;1.10;;
76053;SDS011;64752;48.870;9.082;2022-11-20T14:41:50;6.15;;;2.28;;
76053;SDS011;64752;48.870;9.082;2022-11-20T14:44:20;3.25;;;1.70;;
76053;SDS011;64752;48.870;9.082;2022-11-20T14:46:51;4.85;;;1.90;;
76053;SDS011;64752;48.870;9.082;2022-11-20T14:51:42;2.35;;;1.52;;
76053;SDS011;64752;48.870;9.082;2022-11-20T14:54:19;2.58;;;0.75;;
76053;SDS011;64752;48.870;9.082;2022-11-20T14:59:30;5.55;;;1.65;;
76053;SDS011;64752;48.870;9.082;2022-11-20T15:04:43;5.07;;;1.80;;
76053;SDS011;64752;48.870;9.082;2022-11-20T15:07:26;4.60;;;1.40;;
76053;SDS011;64752;48.870;9.082;2022-11-20T15:10:06;2.85;;;1.42;;
76053;SDS011;64752;48.870;9.082;2022-11-20T15:12:38;4.82;;;1.90;;
76053;SDS011;64752;48.870;9.082;2022-11-20T15:15:12;3.83;;;1.63;;
76053;SDS011;64752;48.870;9.082;2022-11-20T15:17:45;4.95;;;2.92;;
76053;SDS011;64752;48.870;9.082;2022-11-20T15:20:14;3.38;;;1.77;;
76053;SDS011;64752;48.870;9.082;2022-11-20T15:22:40;3.65;;;1.90;;
76053;SDS011;64752;48.870;9.082;2022-11-20T15:25:15;3.03;;;1.70;;
76053;SDS011;64752;48.870;9.082;2022-11-20T15:27:43;5.00;;;1.60;;
76053;SDS011;64752;48.870;9.082;2022-11-20T15:32:40;6.45;;;2.05;;
76053;SDS011;64752;48.870;9.082;2022-11-20T15:35:06;4.20;;;1.95;;
76053;SDS011;64752;48.870;9.082;2022-11-20T15:37:31;3.47;;;1.88;;
76053;SDS011;64752;48.870;9.082;2022-11-20T15:39:57;4.35;;;2.25;;
76053;SDS011;64752;48.870;9.082;2022-11-20T15:42:22;8.55;;;3.78;;
76053;SDS011;64752;48.870;9.082;2022-11-20T15:44:47;6.30;;;2.22;;
76053;SDS011;64752;48.870;9.082;2022-11-20T15:47:13;2.78;;;1.38;;
76053;SDS011;64752;48.870;9.082;2022-11-20T15:49:38;5.60;;;2.13;;
76053;SDS011;64752;48.870;9.082;2022-11-20T15:52:03;8.18;;;3.38;;
76053;SDS011;64752;48.870;9.082;2022-11-20T15:54:29;5.90;;;1.95;;
76053;SDS011;64752;48.870;9.082;2022-11-20T15:56:54;3.83;;;2.08;;
76053;SDS011;64752;48.870;9.082;2022-11-20T15:59:20;6.65;;;2.25;;
76053;SDS011;64752;48.870;9.082;2022-11-20T16:01:45;4.38;;;2.00;;
76053;SDS011;64752;48.870;9.082;2022-11-20T16:04:11;3.88;;;1.50;;
76053;SDS011;64752;48.870;9.082;2022-11-20T16:06:38;4.90;;;2.05;;
76053;SDS011;64752;48.870;9.082;2022-11-20T16:09:04;6.22;;;2.53;;
76053;SDS011;64752;48.870;9.082;2022-11-20T16:11:29;7.77;;;3.50;;
76053;SDS011;64752;48.870;9.082;2022-11-20T16:13:55;6.10;;;2.60;;
76053;SDS011;64752;48.870;9.082;2022-11-20T16:16:39;8.23;;;4.35;;
76053;SDS011;64752;48.870;9.082;2022-11-20T16:19:08;9.20;;;4.57;;
76053;SDS011;64752;48.870;9.082;2022-11-20T16:21:35;6.38;;;2.95;;
76053;SDS011;64752;48.870;9.082;2022-11-20T16:24:04;7.32;;;3.38;;
76053;SDS011;64752;48.870;9.082;2022-11-20T16:26:31;5.95;;;2.92;;
76053;SDS011;64752;48.870;9.082;2022-11-20T16:28:58;4.28;;;2.00;;
76053;SDS011;64752;48.870;9.082;2022-11-20T16:31:24;7.75;;;3.63;;
76053;SDS011;64752;48.870;9.082;2022-11-20T16:33:53;8.70;;;3.50;;
76053;SDS011;64752;48.870;9.082;2022-11-20T16:36:21;9.95;;;4.75;;
76053;SDS011;64752;48.870;9.082;2022-11-20T16:38:54;8.35;;;3.92;;
76053;SDS011;64752;48.870;9.082;2022-11-20T16:41:21;6.57;;;3.08;;
76053;SDS011;64752;48.870;9.082;2022-11-20T16:43:57;8.40;;;3.27;;
76053;SDS011;64752;48.870;9.082;2022-11-20T16:46:25;6.50;;;3.73;;
76053;SDS011;64752;48.870;9.082;2022-11-20T16:48:55;6.03;;;3.00;;
76053;SDS011;64752;48.870;9.082;2022-11-20T16:51:25;5.82;;;2.50;;
76053;SDS011;64752;48.870;9.082;2022-11-20T16:53:52;6.75;;;3.13;;
76053;SDS011;64752;48.870;9.082;2022-11-20T16:56:20;7.35;;;3.67;;
76053;SDS011;64752;48.870;9.082;2022-11-20T16:58:47;6.47;;;3.50;;
76053;SDS011;64752;48.870;9.082;2022-11-20T17:01:15;6.97;;;3.70;;
76053;SDS011;64752;48.870;9.082;2022-11-20T17:03:42;4.78;;;2.92;;
76053;SDS011;64752;48.870;9.082;2022-11-20T17:06:14;5.20;;;2.90;;
76053;SDS011;64752;48.870;9.082;2022-11-20T17:08:41;4.85;;;2.25;;
76053;SDS011;64752;48.870;9.082;2022-11-20T17:11:11;5.05;;;2.22;;
76053;SDS011;64752;48.870;9.082;2022-11-20T17:13:38;5.50;;;2.53;;
76053;SDS011;64752;48.870;9.082;2022-11-20T17:16:05;4.07;;;2.13;;
76053;SDS011;64752;48.870;9.082;2022-11-20T17:18:32;4.97;;;3.10;;
76053;SDS011;64752;48.870;9.082;2022-11-20T17:20:57;4.00;;;2.72;;